Time;durP1;ratioP1;P1;durP2;ratioP2;P2;SDS_P1;SDS_P2;PMS_P1;PMS_P2;Temp;Humidity;BMP_temperature;BMP_pressure;BME280_temperature;BME280_humidity;BME280_pressure;Samples;Min_cycle;Max_cycle;Signal;HPM_P1;HPM_P2
2021/08/06 00:01:40;;;;;;;;;4.75;3.75;;;;;19.49;78.41;100131.13;5073188;27;45352;-71
2021/08/06 00:04:05;;;;;;;;;5.00;5.00;;;;;19.51;78.25;100135.31;5074281;27;46942;-71
2021/08/06 00:06:32;;;;;;;;;4.75;3.25;;;;;19.52;78.09;100136.16;5074342;28;52113;-71
2021/08/06 00:08:57;;;;;;;;;2.75;2.75;;;;;19.53;78.47;100136.03;5072930;27;45409;-70
2021/08/06 00:11:31;;;;;;;;;3.25;2.00;;;;;19.56;78.33;100137.59;5072053;28;51382;-71
2021/08/06 00:13:57;;;;;;;;;5.00;2.25;;;;;19.55;77.78;100142.06;5070984;28;45509;-71
2021/08/06 00:16:23;;;;;;;;;3.75;2.00;;;;;19.58;77.73;100138.31;5072395;27;45382;-71
2021/08/06 00:18:50;;;;;;;;;2.50;2.50;;;;;19.55;77.30;100138.56;5074319;27;45645;-70
2021/08/06 00:21:17;;;;;;;;;3.00;3.00;;;;;19.57;77.74;100139.25;5073673;27;45753;-70
2021/08/06 00:23:42;;;;;;;;;1.75;1.75;;;;;19.61;77.55;100145.19;5069577;27;45506;-70
2021/08/06 00:26:07;;;;;;;;;2.75;2.75;;;;;19.62;76.92;100158.38;5072636;27;45614;-70
2021/08/06 00:28:33;;;;;;;;;3.00;1.75;;;;;19.59;76.67;100142.69;5073164;27;45482;-70
2021/08/06 00:30:58;;;;;;;;;3.75;2.75;;;;;19.60;77.11;100139.03;5074578;27;46636;-70
2021/08/06 00:33:23;;;;;;;;;2.50;2.25;;;;;19.60;76.77;100139.03;5072654;27;45501;-70
2021/08/06 00:35:49;;;;;;;;;2.00;2.00;;;;;19.63;76.85;100145.88;5090475;27;48422;-70
2021/08/06 00:38:14;;;;;;;;;2.50;1.25;;;;;19.58;77.00;100126.81;5068857;28;45455;-70
2021/08/06 00:40:39;;;;;;;;;2.25;1.25;;;;;19.59;76.39;100133.81;5072833;28;46336;-70
2021/08/06 00:43:05;;;;;;;;;4.25;3.00;;;;;19.56;76.61;100142.91;5073679;27;45332;-71
2021/08/06 00:45:30;;;;;;;;;6.25;2.50;;;;;19.35;76.90;100123.53;5073906;28;45392;-70
2021/08/06 00:47:56;;;;;;;;;3.75;2.75;;;;;19.54;76.74;100145.72;5072596;28;45385;-70
2021/08/06 00:50:22;;;;;;;;;3.00;3.00;;;;;19.44;77.21;100134.19;5072342;27;46562;-70
2021/08/06 00:52:48;;;;;;;;;4.00;1.00;;;;;19.52;77.05;100144.16;5071829;28;45720;-70
2021/08/06 00:55:13;;;;;;;;;2.50;2.50;;;;;19.51;76.74;100145.16;5071291;28;45403;-70
2021/08/06 00:57:40;;;;;;;;;3.00;2.75;;;;;19.51;77.17;100140.66;5072456;27;45300;-70
2021/08/06 01:00:06;;;;;;;;;3.50;2.75;;;;;19.50;76.71;100143.47;5072502;27;45603;-71
2021/08/06 01:02:58;;;;;;;;;3.00;1.75;;;;;19.51;76.77;100145.16;5073031;28;45679;-70
2021/08/06 01:05:29;;;;;;;;;0.50;0.50;;;;;19.48;77.29;100140.09;5072254;27;45528;-70
2021/08/06 01:08:10;;;;;;;;;3.25;2.00;;;;;19.50;77.07;100146.13;5072794;28;45402;-71
2021/08/06 01:10:44;;;;;;;;;3.00;3.00;;;;;19.49;76.61;100150.63;5058195;28;45425;-70
2021/08/06 01:13:13;;;;;;;;;5.00;1.50;;;;;19.48;76.45;100142.78;5072902;27;46487;-70
2021/08/06 01:15:41;;;;;;;;;4.25;2.50;;;;;19.44;76.40;100147.53;5088215;27;45401;-70
2021/08/06 01:18:08;;;;;;;;;2.75;2.25;;;;;19.46;76.67;100144.72;5072642;27;45556;-70
2021/08/06 01:20:37;;;;;;;;;4.50;3.00;;;;;19.46;77.00;100142.88;5072819;27;45554;-70
2021/08/06 01:23:27;;;;;;;;;2.50;2.25;;;;;19.47;76.94;100149.94;5072236;27;45412;-70
2021/08/06 01:26:14;;;;;;;;;2.00;2.00;;;;;19.47;76.82;100146.41;5075874;28;45600;-70
2021/08/06 01:28:43;;;;;;;;;3.00;2.00;;;;;19.42;76.42;100136.16;5067257;27;45643;-70
2021/08/06 01:31:10;;;;;;;;;3.00;2.25;;;;;19.42;77.01;100149.50;5076205;27;45501;-70
2021/08/06 01:33:36;;;;;;;;;1.00;1.00;;;;;19.34;76.96;100128.00;5077403;27;45694;-70
2021/08/06 01:36:02;;;;;;;;;2.50;1.50;;;;;19.42;76.95;100137.97;5073354;27;45488;-70
2021/08/06 01:38:27;;;;;;;;;3.25;2.00;;;;;19.43;76.62;100143.19;5075516;27;45473;-70
2021/08/06 01:40:58;;;;;;;;;2.50;2.00;;;;;19.45;76.46;100143.03;5075657;28;46374;-70
2021/08/06 01:43:38;;;;;;;;;2.50;2.00;;;;;19.43;76.92;100145.00;5075548;27;45354;-70
2021/08/06 01:46:18;;;;;;;;;1.50;1.50;;;;;19.37;76.55;100141.06;5074384;27;45391;-70
2021/08/06 01:48:47;;;;;;;;;2.75;2.00;;;;;19.32;76.96;100139.78;5076172;28;45764;-70
2021/08/06 01:51:14;;;;;;;;;2.75;1.50;;;;;19.20;76.96;100113.25;5074973;27;46170;-70
2021/08/06 01:53:45;;;;;;;;;2.50;2.50;;;;;19.26;77.07;100130.50;5092579;27;46496;-70
2021/08/06 01:56:16;;;;;;;;;1.50;1.50;;;;;19.27;76.97;100138.38;5076279;27;45308;-70
2021/08/06 01:58:42;;;;;;;;;5.00;1.75;;;;;19.24;77.10;100143.13;5075205;28;45404;-70
2021/08/06 02:01:12;;;;;;;;;3.00;1.75;;;;;19.21;77.10;100138.94;5076003;27;46109;-70
2021/08/06 02:03:38;;;;;;;;;2.50;2.00;;;;;19.22;77.35;100137.94;5075550;28;45700;-70
2021/08/06 02:06:04;;;;;;;;;3.00;1.50;;;;;19.20;77.51;100125.72;5074936;27;45300;-70
2021/08/06 02:08:29;;;;;;;;;3.25;2.00;;;;;19.14;76.78;100126.28;5070839;27;45269;-71
2021/08/06 02:10:54;;;;;;;;;4.50;3.50;;;;;19.18;77.16;100139.19;5075025;27;46298;-70
2021/08/06 02:13:20;;;;;;;;;1.50;1.50;;;;;19.16;76.99;100143.81;5074818;27;45322;-71
2021/08/06 02:15:49;;;;;;;;;2.25;1.50;;;;;19.16;76.80;100141.16;5076235;28;45281;-70
2021/08/06 02:18:22;;;;;;;;;3.50;2.00;;;;;19.14;76.54;100144.91;5074912;27;45498;-70
2021/08/06 02:20:50;;;;;;;;;2.25;2.25;;;;;19.14;77.22;100148.41;5072132;28;46182;-70
2021/08/06 02:23:18;;;;;;;;;4.50;2.50;;;;;19.12;76.48;100144.22;5070535;28;45814;-70
2021/08/06 02:25:45;;;;;;;;;2.75;2.75;;;;;19.09;76.50;100150.63;5075626;27;45471;-70
2021/08/06 02:28:11;;;;;;;;;3.25;2.75;;;;;19.10;76.88;100154.16;5075169;27;45440;-71
2021/08/06 02:30:39;;;;;;;;;3.00;3.00;;;;;19.09;76.92;100153.31;5074679;28;45583;-70
2021/08/06 02:33:06;;;;;;;;;4.00;3.25;;;;;19.09;76.44;100160.47;5070560;27;45720;-70
2021/08/06 02:35:31;;;;;;;;;3.00;3.00;;;;;19.05;76.59;100159.88;5065216;27;45410;-70
2021/08/06 02:37:56;;;;;;;;;3.75;2.50;;;;;19.04;76.69;100169.69;5074890;27;45461;-70
2021/08/06 02:40:22;;;;;;;;;3.50;2.50;;;;;19.08;76.61;100174.75;5074207;27;45316;-70
2021/08/06 02:42:48;;;;;;;;;3.00;2.75;;;;;19.06;76.84;100158.09;5076157;27;45280;-70
2021/08/06 02:45:13;;;;;;;;;4.50;2.75;;;;;19.05;76.49;100167.84;5074774;28;45450;-70
2021/08/06 02:47:39;;;;;;;;;3.00;2.00;;;;;19.01;76.52;100169.97;5074484;27;45348;-70
2021/08/06 02:50:05;;;;;;;;;2.00;2.00;;;;;19.06;76.28;100169.56;5073808;27;46722;-71
2021/08/06 02:52:31;;;;;;;;;4.00;3.00;;;;;19.03;76.11;100173.31;5073193;27;45711;-70
2021/08/06 02:54:57;;;;;;;;;2.00;2.00;;;;;19.00;76.01;100172.75;5076590;27;45438;-70
2021/08/06 02:57:22;;;;;;;;;0.00;0.00;;;;;18.95;75.92;100167.84;5074969;28;48895;-70
2021/08/06 02:59:47;;;;;;;;;3.00;1.50;;;;;18.94;76.06;100170.63;5073638;28;45791;-70
2021/08/06 03:02:12;;;;;;;;;5.00;2.00;;;;;18.89;75.94;100165.69;5074196;27;45392;-70
2021/08/06 03:04:38;;;;;;;;;3.25;3.25;;;;;18.92;75.85;100175.25;5073661;28;47857;-70
2021/08/06 03:07:03;;;;;;;;;3.50;3.50;;;;;18.85;75.86;100166.13;5074363;28;51868;-70
2021/08/06 03:09:29;;;;;;;;;1.25;1.00;;;;;18.85;75.49;100168.78;5074976;28;46397;-70
2021/08/06 03:11:55;;;;;;;;;4.50;2.00;;;;;18.82;75.68;100171.69;5072807;27;45467;-71
2021/08/06 03:14:20;;;;;;;;;4.50;3.25;;;;;18.85;75.64;100179.44;5074463;27;45482;-71
2021/08/06 03:16:46;;;;;;;;;2.00;2.00;;;;;18.84;75.66;100175.88;5071611;27;46620;-70
2021/08/06 03:19:11;;;;;;;;;2.50;1.50;;;;;18.85;75.36;100182.09;5073817;27;46414;-71
2021/08/06 03:21:36;;;;;;;;;2.00;2.00;;;;;18.83;75.77;100189.34;5073766;27;45411;-70
2021/08/06 03:24:02;;;;;;;;;1.00;1.00;;;;;18.76;75.38;100181.91;5073720;28;45390;-70
2021/08/06 03:26:27;;;;;;;;;2.00;2.00;;;;;18.77;75.29;100193.38;5073139;28;45291;-70
2021/08/06 03:28:53;;;;;;;;;2.00;1.50;;;;;18.71;75.48;100177.94;5073846;28;46533;-71
2021/08/06 03:31:18;;;;;;;;;1.00;1.00;;;;;18.72;75.57;100184.94;5072442;28;45386;-70
2021/08/06 03:33:44;;;;;;;;;2.75;2.75;;;;;18.70;75.16;100186.91;5073280;28;45346;-70
2021/08/06 03:36:10;;;;;;;;;4.50;1.75;;;;;18.69;75.42;100185.22;5074020;28;45759;-70
2021/08/06 03:38:35;;;;;;;;;1.50;1.25;;;;;18.68;74.86;100188.84;5073645;28;46116;-70
2021/08/06 03:41:01;;;;;;;;;4.25;1.00;;;;;18.66;75.03;100190.78;5073470;28;45399;-70
2021/08/06 03:43:26;;;;;;;;;2.75;1.25;;;;;18.63;75.12;100191.00;5074007;27;45319;-70
2021/08/06 03:45:51;;;;;;;;;2.00;2.00;;;;;18.64;75.23;100187.41;5074866;27;45350;-70
2021/08/06 03:48:17;;;;;;;;;2.75;2.00;;;;;18.67;75.12;100195.09;5072047;27;46287;-70
2021/08/06 03:50:42;;;;;;;;;2.00;2.00;;;;;18.67;75.28;100189.78;5071714;27;45496;-70
2021/08/06 03:53:08;;;;;;;;;2.00;2.00;;;;;18.70;75.08;100197.56;5073619;27;45537;-70
2021/08/06 03:55:34;;;;;;;;;2.25;1.75;;;;;18.67;74.89;100192.44;5073828;27;45316;-70
2021/08/06 03:58:00;;;;;;;;;3.00;2.00;;;;;18.62;75.35;100198.16;5074573;27;46305;-70
2021/08/06 04:00:33;;;;;;;;;2.00;2.00;;;;;18.59;75.22;100194.94;5072503;28;45367;-70
2021/08/06 04:02:58;;;;;;;;;5.75;3.00;;;;;18.58;75.24;100199.38;5073040;27;45556;-70
2021/08/06 04:05:24;;;;;;;;;4.25;1.75;;;;;18.57;75.61;100203.03;5073276;28;45394;-70
2021/08/06 04:07:49;;;;;;;;;2.25;1.00;;;;;18.55;75.50;100196.16;5074117;28;46533;-70
2021/08/06 04:10:17;;;;;;;;;3.25;1.00;;;;;18.54;75.35;100208.63;5073699;28;45414;-70
2021/08/06 04:12:45;;;;;;;;;2.75;2.00;;;;;18.54;74.91;100213.94;5074120;27;45516;-70
2021/08/06 04:15:10;;;;;;;;;2.00;2.00;;;;;18.54;74.69;100216.59;5073385;27;45505;-70
2021/08/06 04:17:35;;;;;;;;;2.50;2.00;;;;;18.51;75.25;100209.72;5072663;28;46614;-70
2021/08/06 04:20:01;;;;;;;;;3.75;2.00;;;;;18.52;74.96;100218.53;5073344;28;45464;-70
2021/08/06 04:22:26;;;;;;;;;4.00;1.25;;;;;18.50;74.90;100216.03;5073551;27;45354;-70
2021/08/06 04:24:51;;;;;;;;;4.00;1.75;;;;;18.54;74.39;100224.59;5076128;27;45454;-70
2021/08/06 04:27:17;;;;;;;;;1.50;1.25;;;;;18.51;74.39;100216.84;5074469;27;46508;-71
2021/08/06 04:29:42;;;;;;;;;3.50;2.00;;;;;18.49;74.11;100218.81;5071786;27;45504;-70
2021/08/06 04:32:08;;;;;;;;;1.50;1.00;;;;;18.49;74.76;100232.97;5072904;27;45327;-70
2021/08/06 04:34:33;;;;;;;;;4.25;2.00;;;;;18.47;74.02;100221.59;5073117;27;45489;-70
2021/08/06 04:37:00;;;;;;;;;1.00;1.00;;;;;18.51;74.16;100235.47;5074501;27;46126;-71
2021/08/06 04:39:25;;;;;;;;;2.50;2.00;;;;;18.48;73.79;100231.28;5072305;27;45354;-70
2021/08/06 04:41:51;;;;;;;;;2.50;1.75;;;;;18.43;73.77;100230.81;5073049;28;45374;-70
2021/08/06 04:44:17;;;;;;;;;1.00;1.00;;;;;18.52;74.09;100245.16;5072916;28;45441;-70
2021/08/06 04:46:42;;;;;;;;;1.75;1.00;;;;;18.51;73.47;100252.28;5072570;28;45852;-70
2021/08/06 04:49:08;;;;;;;;;2.00;2.00;;;;;18.53;73.87;100257.47;5073519;27;45298;-70
2021/08/06 04:51:33;;;;;;;;;1.75;1.00;;;;;18.54;73.35;100251.22;5071993;27;45612;-71
2021/08/06 04:53:59;;;;;;;;;5.00;2.00;;;;;18.54;73.84;100245.03;5073059;27;45326;-70
2021/08/06 04:56:25;;;;;;;;;4.50;1.50;;;;;18.58;73.20;100249.09;5072502;28;46293;-70
2021/08/06 04:58:50;;;;;;;;;3.75;1.00;;;;;18.59;72.79;100257.00;5074771;27;45588;-70
2021/08/06 05:01:15;;;;;;;;;3.75;2.00;;;;;18.57;73.46;100250.94;5076436;27;45599;-70
2021/08/06 05:03:40;;;;;;;;;1.00;1.00;;;;;18.58;73.37;100257.09;5077917;27;45520;-71
2021/08/06 05:06:06;;;;;;;;;2.50;1.50;;;;;18.60;73.36;100252.50;5075434;28;52384;-71
2021/08/06 05:08:31;;;;;;;;;4.50;2.25;;;;;18.59;73.12;100259.66;5074737;27;45507;-70
2021/08/06 05:10:57;;;;;;;;;1.25;1.00;;;;;18.58;72.73;100255.28;5076382;27;45621;-70
2021/08/06 05:13:22;;;;;;;;;1.00;1.00;;;;;18.61;72.86;100263.00;5075708;27;45322;-72
2021/08/06 05:15:47;;;;;;;;;1.00;1.00;;;;;18.60;73.05;100263.16;5076820;27;56578;-70
2021/08/06 05:18:13;;;;;;;;;2.00;1.00;;;;;18.61;73.01;100268.34;5076093;27;45339;-70
2021/08/06 05:20:38;;;;;;;;;1.75;1.00;;;;;18.63;73.09;100257.56;5076136;27;45492;-70
2021/08/06 05:23:05;;;;;;;;;2.00;1.00;;;;;18.61;73.53;100273.66;5075976;27;45382;-70
2021/08/06 05:25:31;;;;;;;;;3.00;1.75;;;;;18.67;73.59;100273.13;5075102;27;46311;-70
2021/08/06 05:27:56;;;;;;;;;3.00;2.00;;;;;18.68;73.03;100263.38;5076891;27;45554;-70
2021/08/06 05:30:22;;;;;;;;;2.00;1.50;;;;;18.70;73.36;100261.44;5074381;27;45552;-70
2021/08/06 05:32:50;;;;;;;;;2.75;1.25;;;;;18.68;73.47;100268.69;5076252;27;45385;-70
2021/08/06 05:35:17;;;;;;;;;1.00;1.00;;;;;18.71;72.67;100274.59;5075800;28;46531;-71
2021/08/06 05:37:42;;;;;;;;;1.00;1.00;;;;;18.74;72.84;100276.16;5075652;28;45889;-70
2021/08/06 05:40:08;;;;;;;;;1.50;1.00;;;;;18.72;72.66;100264.81;5072882;28;45477;-71
2021/08/06 05:42:34;;;;;;;;;1.25;1.00;;;;;18.73;72.94;100274.47;5075039;28;45540;-71
2021/08/06 05:44:59;;;;;;;;;2.50;2.25;;;;;18.78;72.96;100274.94;5073833;28;47306;-70
2021/08/06 05:47:24;;;;;;;;;4.50;3.75;;;;;18.80;72.89;100270.34;5074566;27;45406;-70
2021/08/06 05:49:50;;;;;;;;;1.25;1.25;;;;;18.84;73.08;100282.38;5075104;28;45461;-70
2021/08/06 05:52:15;;;;;;;;;1.50;1.00;;;;;18.77;72.50;100260.78;5075508;27;45721;-70
2021/08/06 05:54:40;;;;;;;;;1.25;1.25;;;;;18.86;72.95;100266.31;5077480;27;45605;-70
2021/08/06 05:57:06;;;;;;;;;4.00;1.75;;;;;18.86;73.23;100267.16;5074318;27;45342;-70
2021/08/06 05:59:31;;;;;;;;;3.25;1.00;;;;;18.90;73.34;100271.25;5075205;27;45275;-70
2021/08/06 06:01:57;;;;;;;;;1.25;1.00;;;;;18.94;73.31;100272.66;5075064;27;45472;-70
2021/08/06 06:04:22;;;;;;;;;2.25;1.50;;;;;18.92;73.23;100274.59;5075537;27;46099;-71
2021/08/06 06:06:47;;;;;;;;;4.25;1.75;;;;;18.87;72.64;100274.16;5074938;27;45520;-71
2021/08/06 06:09:12;;;;;;;;;2.00;1.00;;;;;18.88;72.83;100282.97;5073456;27;47565;-71
2021/08/06 06:11:38;;;;;;;;;2.25;0.50;;;;;18.89;73.10;100287.31;5073205;27;45335;-72
2021/08/06 06:14:03;;;;;;;;;3.00;1.25;;;;;18.86;73.32;100280.47;5082363;27;45628;-70
2021/08/06 06:16:29;;;;;;;;;1.00;1.00;;;;;18.95;73.42;100290.34;5076231;28;45414;-70
2021/08/06 06:18:55;;;;;;;;;5.00;2.00;;;;;19.00;73.05;100290.78;5075510;28;45583;-70
2021/08/06 06:21:20;;;;;;;;;2.75;1.25;;;;;19.03;73.04;100290.50;5075153;27;45430;-70
2021/08/06 06:23:46;;;;;;;;;2.25;1.00;;;;;19.08;72.89;100281.28;5074007;28;46330;-70
2021/08/06 06:26:11;;;;;;;;;2.00;1.00;;;;;19.09;72.44;100289.13;5071858;27;45496;-70
2021/08/06 06:28:36;;;;;;;;;1.75;1.00;;;;;19.14;72.81;100278.09;5073411;28;45637;-71
2021/08/06 06:31:02;;;;;;;;;2.00;1.25;;;;;19.19;72.32;100281.19;5075089;27;45365;-70
2021/08/06 06:33:27;;;;;;;;;2.00;1.25;;;;;19.24;71.97;100294.97;5074950;28;45459;-71
2021/08/06 06:35:53;;;;;;;;;4.00;1.00;;;;;19.27;72.30;100289.38;5073901;27;45422;-70
2021/08/06 06:38:19;;;;;;;;;2.25;1.50;;;;;19.32;72.00;100291.66;5074641;27;45439;-71
2021/08/06 06:40:44;;;;;;;;;4.00;1.00;;;;;19.44;72.04;100283.44;5073958;28;45389;-70
2021/08/06 06:43:09;;;;;;;;;0.75;0.75;;;;;19.53;71.52;100285.31;5073927;28;47411;-71
2021/08/06 06:45:35;;;;;;;;;3.00;1.00;;;;;19.55;71.09;100286.00;5075803;27;47474;-70
2021/08/06 06:48:00;;;;;;;;;0.75;0.50;;;;;19.59;71.53;100291.94;5073130;27;45528;-70
2021/08/06 06:50:28;;;;;;;;;0.50;0.00;;;;;19.77;71.10;100298.31;5073850;27;45478;-70
2021/08/06 06:52:54;;;;;;;;;1.25;0.50;;;;;19.80;71.05;100306.06;5074534;27;46397;-70
2021/08/06 06:55:20;;;;;;;;;2.00;0.75;;;;;19.89;70.60;100306.19;5074130;27;45325;-70
2021/08/06 06:57:51;;;;;;;;;3.00;1.00;;;;;19.87;70.06;100309.00;5076577;27;45479;-70
2021/08/06 07:00:18;;;;;;;;;2.00;0.50;;;;;19.83;69.94;100320.09;5074788;27;45310;-70
2021/08/06 07:02:44;;;;;;;;;1.75;0.75;;;;;19.77;70.50;100326.78;5073884;27;45611;-70
2021/08/06 07:05:10;;;;;;;;;0.25;0.25;;;;;19.73;70.24;100320.91;5074608;27;45561;-70
2021/08/06 07:07:36;;;;;;;;;2.00;1.00;;;;;19.73;70.77;100318.25;5074710;27;45589;-71
2021/08/06 07:10:01;;;;;;;;;0.50;0.50;;;;;19.74;70.34;100319.09;5075351;27;45472;-72
2021/08/06 07:12:27;;;;;;;;;4.00;0.50;;;;;19.76;70.15;100323.28;5074727;27;46483;-71
2021/08/06 07:14:52;;;;;;;;;1.00;1.00;;;;;19.80;69.92;100318.53;5074204;27;45397;-71
2021/08/06 07:17:17;;;;;;;;;1.75;0.25;;;;;19.82;70.54;100316.56;5074416;27;45416;-71
2021/08/06 07:19:43;;;;;;;;;2.50;1.00;;;;;19.87;69.99;100303.69;5073897;28;47470;-71
2021/08/06 07:22:08;;;;;;;;;1.25;0.50;;;;;19.95;69.78;100311.84;5074578;27;45455;-71
2021/08/06 07:24:33;;;;;;;;;0.00;0.00;;;;;19.97;70.27;100312.56;5074994;28;45464;-70
2021/08/06 07:26:59;;;;;;;;;0.75;0.75;;;;;20.07;69.89;100316.09;5072605;27;45457;-71
2021/08/06 07:29:24;;;;;;;;;1.00;1.00;;;;;20.10;69.59;100317.66;5072758;27;45500;-71
2021/08/06 07:31:49;;;;;;;;;1.50;1.50;;;;;20.17;69.35;100328.59;5073930;27;45338;-71
2021/08/06 07:34:16;;;;;;;;;0.50;0.50;;;;;20.25;69.56;100332.25;5086513;27;45533;-71
2021/08/06 07:36:41;;;;;;;;;3.00;1.00;;;;;20.37;69.51;100330.31;5079613;27;45355;-71
2021/08/06 07:39:06;;;;;;;;;0.50;0.00;;;;;20.47;68.88;100343.72;5073343;28;45372;-71
2021/08/06 07:41:32;;;;;;;;;1.00;1.00;;;;;20.44;68.40;100338.63;5073719;27;46615;-71
2021/08/06 07:43:57;;;;;;;;;1.00;1.00;;;;;20.41;68.12;100341.53;5072667;27;45367;-71
2021/08/06 07:46:22;;;;;;;;;0.50;0.50;;;;;20.30;67.99;100338.03;5074406;27;45395;-70
2021/08/06 07:48:48;;;;;;;;;1.75;0.75;;;;;20.33;68.33;100336.91;5075525;27;45310;-71
2021/08/06 07:51:13;;;;;;;;;0.00;0.00;;;;;20.39;68.38;100344.38;5073400;28;55478;-71
2021/08/06 07:53:38;;;;;;;;;0.00;0.00;;;;;20.42;67.91;100344.09;5073071;28;45387;-71
2021/08/06 07:56:04;;;;;;;;;1.75;1.25;;;;;20.48;68.40;100348.91;5073679;28;45871;-71
2021/08/06 07:58:29;;;;;;;;;1.00;0.75;;;;;20.54;68.01;100345.69;5073777;28;45441;-71
2021/08/06 08:00:55;;;;;;;;;0.75;0.75;;;;;20.74;67.75;100348.38;5075621;27;56021;-70
2021/08/06 08:03:20;;;;;;;;;0.50;0.50;;;;;20.78;67.51;100339.94;5072783;28;45710;-71
2021/08/06 08:05:46;;;;;;;;;0.75;0.00;;;;;20.98;66.91;100345.25;5071887;27;45383;-71
2021/08/06 08:08:11;;;;;;;;;2.00;0.00;;;;;20.96;66.60;100350.72;5073096;27;45465;-71
2021/08/06 08:10:36;;;;;;;;;1.00;0.00;;;;;20.83;66.74;100364.38;5070062;28;51271;-71
2021/08/06 08:13:02;;;;;;;;;0.25;0.25;;;;;20.73;66.94;100355.53;5071593;27;45695;-71
2021/08/06 08:15:28;;;;;;;;;2.00;1.00;;;;;20.64;67.40;100368.88;5074332;27;45402;-71
2021/08/06 08:17:54;;;;;;;;;3.25;1.25;;;;;20.57;67.78;100358.75;5073292;28;45424;-71
2021/08/06 08:20:19;;;;;;;;;0.50;0.00;;;;;20.54;68.14;100361.69;5073011;28;46753;-71
2021/08/06 08:22:44;;;;;;;;;1.25;1.25;;;;;20.53;68.94;100372.53;5071583;27;45459;-71
2021/08/06 08:25:11;;;;;;;;;0.00;0.00;;;;;20.54;69.08;100369.69;5073951;27;45319;-71
2021/08/06 08:27:36;;;;;;;;;1.25;1.25;;;;;20.54;68.84;100363.53;5075197;28;45333;-71
2021/08/06 08:30:03;;;;;;;;;0.50;0.50;;;;;20.55;69.50;100373.22;5073013;27;46287;-71
2021/08/06 08:32:28;;;;;;;;;0.25;0.25;;;;;20.47;69.20;100357.91;5072961;27;45685;-70
2021/08/06 08:34:54;;;;;;;;;0.00;0.00;;;;;20.42;68.86;100361.94;5076852;28;45645;-71
2021/08/06 08:37:19;;;;;;;;;2.75;0.50;;;;;20.43;69.01;100368.97;5076400;27;45355;-71
2021/08/06 08:39:46;;;;;;;;;0.00;0.00;;;;;20.47;69.02;100373.09;5078798;27;45311;-71
2021/08/06 08:42:11;;;;;;;;;1.25;1.25;;;;;20.51;68.77;100371.78;5076084;27;45716;-71
2021/08/06 08:44:39;;;;;;;;;1.00;0.50;;;;;20.48;68.24;100374.75;5075153;27;45599;-70
2021/08/06 08:47:07;;;;;;;;;0.00;0.00;;;;;20.45;68.07;100375.84;5077082;27;45362;-71
2021/08/06 08:49:36;;;;;;;;;0.50;0.50;;;;;20.44;68.30;100375.97;5076173;27;45437;-71
2021/08/06 08:52:02;;;;;;;;;0.50;0.50;;;;;20.47;67.93;100381.09;5077518;27;45674;-71
2021/08/06 08:54:28;;;;;;;;;3.00;0.00;;;;;20.49;68.27;100369.28;5077275;27;45476;-72
2021/08/06 08:56:54;;;;;;;;;0.00;0.00;;;;;20.52;67.91;100376.19;5076558;28;45410;-71
2021/08/06 08:59:20;;;;;;;;;2.50;0.00;;;;;20.62;68.24;100376.16;5076173;28;46323;-71
2021/08/06 09:01:46;;;;;;;;;0.00;0.00;;;;;20.75;66.99;100376.75;5075314;27;45661;-71
2021/08/06 09:04:28;;;;;;;;;1.00;1.00;;;;;20.90;67.11;100383.34;5075192;28;45438;-71
2021/08/06 09:06:54;;;;;;;;;0.25;0.25;;;;;21.13;66.64;100380.38;5077420;27;45515;-71
2021/08/06 09:09:21;;;;;;;;;5.00;1.00;;;;;21.45;66.52;100378.25;5075953;27;46364;-71
2021/08/06 09:12:14;;;;;;;;;0.00;0.00;;;;;21.94;65.97;100380.75;5076097;27;45430;-71
2021/08/06 09:14:40;;;;;;;;;0.00;0.00;;;;;22.17;65.10;100378.56;5069826;27;45512;-71
2021/08/06 09:17:09;;;;;;;;;0.50;0.00;;;;;22.25;64.56;100386.69;5076292;27;45465;-70
2021/08/06 09:19:54;;;;;;;;;0.50;0.50;;;;;22.16;63.68;100390.25;5076336;27;46150;-71
2021/08/06 09:22:24;;;;;;;;;0.00;0.00;;;;;22.08;63.27;100385.59;5075842;27;45742;-71
2021/08/06 09:25:06;;;;;;;;;2.00;0.00;;;;;22.07;63.04;100391.94;5077496;27;45369;-71
2021/08/06 09:27:34;;;;;;;;;1.00;1.00;;;;;21.96;63.57;100390.31;5077146;27;45508;-71
2021/08/06 09:30:00;;;;;;;;;2.00;0.50;;;;;21.82;64.30;100397.00;5075963;27;46440;-71
2021/08/06 09:32:27;;;;;;;;;2.00;0.00;;;;;21.65;64.63;100396.91;5076495;27;45359;-71
2021/08/06 09:34:52;;;;;;;;;2.00;0.00;;;;;21.59;65.53;100398.34;5070923;28;45346;-71
2021/08/06 09:37:21;;;;;;;;;1.25;1.25;;;;;21.68;65.00;100396.63;5074836;28;45350;-71
2021/08/06 09:39:49;;;;;;;;;0.00;0.00;;;;;21.94;64.58;100397.66;5077943;28;45504;-71
2021/08/06 09:42:39;;;;;;;;;1.00;1.00;;;;;22.24;64.62;100395.69;5074375;27;45635;-70
2021/08/06 09:45:08;;;;;;;;;1.75;1.75;;;;;22.58;63.67;100383.38;5075911;27;45513;-71
2021/08/06 09:47:36;;;;;;;;;0.00;0.00;;;;;22.64;63.44;100390.78;5075578;27;45544;-71
2021/08/06 09:50:06;;;;;;;;;0.00;0.00;;;;;22.56;62.47;100405.97;5075172;27;45608;-71
2021/08/06 09:52:36;;;;;;;;;2.00;1.00;;;;;22.26;62.36;100410.63;5075653;27;45599;-71
2021/08/06 09:55:04;;;;;;;;;0.50;0.00;;;;;21.91;63.72;100414.00;5075777;27;45247;-71
2021/08/06 09:57:31;;;;;;;;;0.75;0.50;;;;;21.52;64.33;100410.63;5075521;27;45484;-71
2021/08/06 09:59:58;;;;;;;;;2.00;2.00;;;;;21.21;65.17;100404.59;5075295;27;46596;-71
2021/08/06 10:02:31;;;;;;;;;1.25;1.00;;;;;21.20;65.87;100393.06;5069977;28;45327;-71
2021/08/06 10:05:02;;;;;;;;;0.75;0.00;;;;;21.41;65.96;100406.28;5075031;28;45400;-71
2021/08/06 10:07:30;;;;;;;;;1.00;1.00;;;;;21.54;65.55;100404.13;5056981;28;45460;-71
2021/08/06 10:09:56;;;;;;;;;0.75;0.75;;;;;21.78;64.24;100414.34;5073188;28;46721;-71
2021/08/06 10:12:22;;;;;;;;;2.50;1.25;;;;;21.97;63.87;100399.19;5075141;27;45872;-71
2021/08/06 10:14:47;;;;;;;;;1.00;1.00;;;;;22.26;62.79;100404.44;5075154;27;45475;-71
2021/08/06 10:17:13;;;;;;;;;1.00;0.00;;;;;22.59;62.96;100408.31;5075277;27;47001;-71
2021/08/06 10:19:39;;;;;;;;;2.75;1.00;;;;;23.12;62.63;100405.66;5073672;27;46393;-71
2021/08/06 10:22:06;;;;;;;;;1.50;1.00;;;;;23.36;61.01;100406.88;5076490;27;45407;-71
2021/08/06 10:24:34;;;;;;;;;0.00;0.00;;;;;23.37;60.57;100398.66;5076274;28;45356;-71
2021/08/06 10:27:00;;;;;;;;;0.50;0.00;;;;;23.30;60.42;100397.59;5074982;27;45278;-70
2021/08/06 10:29:26;;;;;;;;;0.00;0.00;;;;;23.20;59.75;100394.19;5075234;27;46621;-71
2021/08/06 10:32:11;;;;;;;;;1.50;0.00;;;;;22.93;59.86;100411.22;5074451;28;45568;-71
2021/08/06 10:35:16;;;;;;;;;2.25;1.00;;;;;22.81;60.91;100415.06;5074337;27;45430;-71
2021/08/06 10:38:00;;;;;;;;;1.00;0.00;;;;;22.82;60.93;100411.41;5060750;28;45508;-71
2021/08/06 10:40:34;;;;;;;;;3.50;1.00;;;;;22.88;60.74;100416.19;5073794;27;45397;-71
2021/08/06 10:43:09;;;;;;;;;3.00;0.00;;;;;22.82;60.08;100424.81;5072749;27;45529;-71
2021/08/06 10:45:47;;;;;;;;;1.25;0.00;;;;;22.87;60.41;100418.00;5076212;28;45391;-71
2021/08/06 10:48:34;;;;;;;;;0.00;0.00;;;;;22.85;60.15;100405.72;5069609;27;45335;-71
2021/08/06 10:51:11;;;;;;;;;0.50;0.50;;;;;22.80;60.20;100416.06;5074589;27;46526;-71
2021/08/06 10:53:37;;;;;;;;;0.00;0.00;;;;;22.65;59.70;100413.91;5074458;27;45604;-71
2021/08/06 10:56:24;;;;;;;;;1.00;1.00;;;;;22.58;59.93;100420.88;5074508;27;45483;-71
2021/08/06 10:58:52;;;;;;;;;0.00;0.00;;;;;22.67;60.68;100425.31;5073288;27;45625;-70
2021/08/06 11:01:26;;;;;;;;;1.75;1.25;;;;;22.90;59.28;100419.53;5073856;27;46197;-71
2021/08/06 11:03:57;;;;;;;;;0.00;0.00;;;;;23.09;60.21;100411.34;5079627;27;45543;-71
2021/08/06 11:06:37;;;;;;;;;0.75;0.75;;;;;23.39;59.60;100410.09;5074905;27;45429;-72
2021/08/06 11:09:04;;;;;;;;;1.50;1.50;;;;;23.64;59.32;100402.22;5069918;28;45463;-71
2021/08/06 11:11:45;;;;;;;;;1.00;0.50;;;;;23.99;58.61;100403.91;5074709;27;46337;-71
2021/08/06 11:14:15;;;;;;;;;0.00;0.00;;;;;24.20;58.13;100404.34;5074230;27;45355;-71
2021/08/06 11:17:00;;;;;;;;;0.50;0.25;;;;;24.36;57.41;100405.44;5074100;27;45571;-71
2021/08/06 11:19:31;;;;;;;;;4.00;0.75;;;;;24.31;57.33;100400.50;5073565;27;45399;-71
2021/08/06 11:21:57;;;;;;;;;1.00;1.00;;;;;24.28;56.68;100408.06;5072314;28;45342;-71
2021/08/06 11:24:22;;;;;;;;;1.00;0.00;;;;;24.20;56.05;100407.03;5074150;27;45430;-71
2021/08/06 11:26:49;;;;;;;;;0.75;0.75;;;;;24.06;55.63;100414.84;5074141;27;45410;-71